• Join FlightAware (Why Join?)
  • Login
  • US Flag 
02:48AM EDT


 

Airport Tracker/Info


-or-


 

Live Flight TrackerFlight Track Log ✈ SWA1259 ✈ 08-Oct-2013 ✈ KCMH - KBWI

Flight Track Log - Related Links

Times and Time Zones

All times are in EDT time to prevent confusion due to time zone crossing. See the SWA1259 flight status page for this flight to view local times or setup timezone preferences in your user account.

Time Position Orientation Groundspeed Altitude Reporting Facility
EDT Latitude Longitude Course Direction KTS MPH feet Rate Location/Type
06:26AM 39.9942 -82.9714 274° West 202 232 2,900  Level Indianapolis Center
06:26AM 39.9947 -82.9814 274° West 204 235 3,500 3,000 Climbing Indianapolis Center
06:27AM 39.9778 -83.0344 247° West 246 283 5,700 2,940 Climbing Indianapolis Center
06:27AM 39.9619 -83.0367 186° South 241 277 6,500 2,340 Climbing Indianapolis Center
06:28AM 39.9119 -82.9900 144° Southeast 254 292 8,900 2,400 Climbing Indianapolis Center
06:29AM 39.9028 -82.8839 96° East 285 328 11,400 2,700 Climbing Indianapolis Center
06:30AM 39.9067 -82.7581 88° East 341 392 14,400 3,060 Climbing Indianapolis Center
06:31AM 39.9147 -82.6269 85° East 360 414 17,600 2,760 Climbing Indianapolis Center
06:32AM 39.9242 -82.4883 85° East 379 436 20,100 2,700 Climbing Indianapolis Center
06:33AM 39.9350 -82.3172 85° East 394 453 23,100 2,580 Climbing Indianapolis Center
06:35AM 39.9436 -82.1656 86° East 419 482 25,400 2,220 Climbing Indianapolis Center
06:36AM 39.9531 -82.0131 85° East 422 486 27,600 1,740 Climbing Indianapolis Center
06:37AM 39.9617 -81.8583 86° East 429 494 29,000 660 Climbing Indianapolis Center
06:38AM 39.9700 -81.7086 86° East 438 504 29,000  Level Indianapolis Center
06:39AM 39.9797 -81.5453 86° East 447 514 29,000  Level Indianapolis Center
06:40AM 39.9881 -81.3808 86° East 451 519 29,000  Level Indianapolis Center
06:41AM 39.9972 -81.2133 86° East 457 526 29,000  Level Indianapolis Center
06:42AM 40.0044 -81.0511 87° East 448 516 29,000  Level Indianapolis Center
06:43AM 40.0125 -80.8922 86° East 441 507 29,000  Level Indianapolis Center
06:44AM 40.0008 -80.7336 95° East 440 506 29,000  Level Indianapolis Center
06:45AM 39.9678 -80.5761 105° East 447 514 29,000  Level Indianapolis Center
06:46AM 39.9347 -80.4044 104° East 450 518 29,000  Level Indianapolis Center
06:47AM 39.9022 -80.2450 105° East 453 521 29,000  Level Indianapolis Center
06:48AM 39.8681 -80.0839 105° East 458 527 29,000  Level Indianapolis Center
06:49AM 39.8350 -79.9225 105° East 459 528 29,000  Level Indianapolis Center
06:50AM 39.8075 -79.7811 104° East 457 526 29,000  Level Washington Center
06:51AM 39.7792 -79.6361 104° East 465 535 29,000  Level Washington Center
06:52AM 39.7450 -79.4750 105° East 465 535 29,000 -300 Level Washington Center
06:53AM 39.7125 -79.3167 105° East 460 529 28,400 -1,740 Descending Washington Center
06:54AM 39.6758 -79.1478 106° East 460 529 25,600 -2,220 Descending Washington Center
06:54AM 39.6597 -79.0839 108° East 441 507 25,000 -420 Descending Cleveland Center
06:55AM 39.6236 -78.9217 106° East 435 501 25,000 -60 Level Cleveland Center
06:56AM 39.5900 -78.7650 106° East 446 513 24,900 -1,080 Descending Cleveland Center
06:57AM 39.5581 -78.6164 106° East 433 498 22,800 -2,280 Descending Cleveland Center
06:58AM 39.5167 -78.4333 106° East 408 470 19,800 -2,400 Descending Potomac TRACON
06:59AM 39.4833 -78.3000 108° East 390 449 17,800 -2,280 Descending Potomac TRACON
07:00AM 39.4667 -78.1667 99° East 389 448 15,500 -1,500 Descending Potomac TRACON
07:01AM 39.4333 -78.0500 110° East 382 440 15,000 -240 Descending Potomac TRACON
07:02AM 39.4333 -77.9167 90° East 375 432 15,100  Climbing Potomac TRACON
07:03AM 39.4333 -77.8000 90° East 375 432 15,100 -480 Level Potomac TRACON
07:04AM 39.4333 -77.6667 90° East 372 428 14,200 -1,020 Descending Potomac TRACON
07:05AM 39.4500 -77.5167 82° East 368 423 13,100 -1,500 Descending Potomac TRACON
07:06AM 39.4500 -77.4000 90° East 357 411 11,300 -1,140 Descending Potomac TRACON
07:07AM 39.4500 -77.2833 90° East 357 411 11,000 -480 Descending Potomac TRACON
07:08AM 39.4667 -77.1667 79° East 351 404 10,500 -900 Descending Potomac TRACON
07:09AM 39.4667 -77.0500 90° East 318 366 9,300 -1,380 Descending Potomac TRACON
07:10AM 39.4667 -76.9500 90° East 301 346 7,800 -1,500 Descending Potomac TRACON
07:11AM 39.4667 -76.8500 90° East 292 336 6,400 -1,440 Descending Potomac TRACON
07:12AM 39.4500 -76.7500 102° East 274 315 5,100 -780 Descending Potomac TRACON
07:13AM 39.4333 -76.6667 104° East 270 311 5,000 -240 Descending Potomac TRACON
07:14AM 39.3833 -76.6000 134° Southeast 270 311 4,700 -780 Descending Potomac TRACON
07:15AM 39.3167 -76.5500 150° Southeast 275 316 3,600 -900 Descending Potomac TRACON
07:16AM 39.2667 -76.5167 153° Southeast 253 291 3,000 -360 Descending Potomac TRACON
07:17AM 39.2000 -76.4833 159° South 244 281 3,000 -300 Level Potomac TRACON
07:18AM 39.1333 -76.4667 169° South 228 262 2,500 -300 Descending Potomac TRACON
07:19AM 39.0833 -76.4833 195° South 225 259 2,500  Level Potomac TRACON
07:20AM 39.0500 -76.5500 237° Southwest 216 249 2,500 -60 Level Potomac TRACON
07:21AM 39.0667 -76.5833 303° West 148 170 2,400 -420 Descending Potomac TRACON
07:21AM 39.1000 -76.6000 339° North 129 148 1,800 -720 Descending Potomac TRACON
07:22AM 39.1333 -76.6333 322° Northwest 118 136 1,100 -660 Descending Potomac TRACON
07:23AM 39.1500 -76.6500 322° Northwest 118 136 500 -600 Descending Potomac TRACON